createdAt,value
2024-03-04T00:00:33.186Z,35.20
2024-03-04T00:05:37.794Z,35.50
2024-03-04T00:10:39.964Z,33.50
2024-03-04T00:15:41.934Z,42.00
2024-03-04T00:20:43.735Z,40.40
2024-03-04T00:25:46.650Z,36.30
2024-03-04T00:30:48.798Z,42.80
2024-03-04T00:35:50.777Z,33.10
2024-03-04T00:40:52.669Z,30.20
2024-03-04T00:45:54.613Z,37.40
2024-03-04T00:50:58.132Z,36.60
2024-03-04T00:55:59.979Z,32.80
2024-03-04T01:01:02.865Z,36.30
2024-03-04T01:06:05.582Z,29.80
2024-03-04T01:11:08.877Z,30.30
2024-03-04T01:16:10.908Z,33.40
2024-03-04T01:21:12.751Z,33.20
2024-03-04T01:26:15.403Z,26.20
2024-03-04T01:31:19.763Z,30.00
2024-03-04T01:36:21.717Z,30.60
2024-03-04T01:41:23.677Z,27.40
2024-03-04T01:46:26.231Z,32.40
2024-03-04T01:51:28.408Z,28.70
2024-03-04T01:56:31.881Z,34.40
2024-03-04T02:01:33.901Z,38.50
2024-03-04T02:06:35.986Z,35.50
2024-03-04T02:11:39.596Z,33.30
2024-03-04T02:16:41.597Z,31.60
2024-03-04T02:21:51.765Z,33.30
2024-03-04T02:26:54.462Z,35.80
2024-03-04T02:31:56.930Z,35.90
2024-03-04T02:37:00.040Z,42.40
2024-03-04T02:42:03.013Z,37.10
2024-03-04T02:47:05.281Z,35.00
2024-03-04T02:52:08.129Z,39.10
2024-03-04T02:57:11.926Z,37.80
2024-03-04T03:02:13.780Z,44.10
2024-03-04T03:07:15.692Z,47.30
2024-03-04T03:12:18.618Z,52.10
2024-03-04T03:17:21.595Z,48.80
2024-03-04T03:22:23.543Z,50.00
2024-03-04T03:27:25.581Z,55.10
2024-03-04T03:32:27.568Z,56.50
2024-03-04T03:37:29.586Z,47.20
2024-03-04T03:42:33.546Z,51.10
2024-03-04T03:47:35.912Z,43.00
2024-03-04T03:52:38.089Z,54.70
2024-03-04T03:57:51.244Z,50.30
2024-03-04T04:03:00.711Z,52.30
2024-03-04T04:08:02.806Z,45.80
2024-03-04T04:13:04.922Z,47.00
2024-03-04T04:18:06.897Z,52.40
2024-03-04T04:23:09.048Z,43.70
2024-03-04T04:28:12.016Z,41.60
2024-03-04T04:33:13.945Z,51.20
2024-03-04T04:38:20.691Z,51.90
2024-03-04T04:43:22.708Z,56.20
2024-03-04T04:48:24.725Z,51.00
2024-03-04T04:53:26.618Z,57.50
2024-03-04T04:58:29.427Z,52.90
2024-03-04T05:03:47.108Z,56.10
2024-03-04T05:08:54.253Z,54.60
2024-03-04T05:13:56.700Z,60.00
2024-03-04T05:18:58.798Z,59.60
2024-03-04T05:24:00.944Z,60.10
2024-03-04T05:29:02.929Z,69.20
2024-03-04T05:34:06.608Z,64.40
2024-03-04T05:39:11.205Z,64.90
2024-03-04T05:44:15.351Z,67.80
2024-03-04T05:49:17.310Z,64.50
2024-03-04T05:54:19.287Z,56.50
2024-03-04T05:59:21.199Z,48.10
2024-03-04T06:04:25.432Z,64.40
2024-03-04T06:09:28.311Z,71.30
2024-03-04T06:14:30.560Z,69.80
2024-03-04T06:19:33.193Z,58.70
2024-03-04T06:24:38.342Z,60.60
2024-03-04T06:29:40.318Z,78.60
2024-03-04T06:39:47.510Z,51.40
2024-03-04T06:44:49.426Z,54.30
2024-03-04T06:54:54.220Z,47.50
2024-03-04T06:59:56.242Z,53.60
2024-03-04T07:04:58.040Z,38.80
2024-03-04T07:10:01.371Z,51.80
2024-03-04T07:15:07.775Z,54.60
2024-03-04T07:20:12.013Z,52.20
2024-03-04T07:25:14.161Z,51.50
2024-03-04T07:30:16.288Z,44.50
2024-03-04T07:35:18.158Z,45.90
2024-03-04T07:40:20.063Z,42.50
2024-03-04T07:45:21.921Z,41.80
2024-03-04T07:50:27.248Z,39.70
2024-03-04T07:55:32.205Z,35.30
2024-03-04T08:00:34.462Z,37.00
2024-03-04T08:05:36.790Z,30.70
2024-03-04T08:10:39.828Z,31.60
2024-03-04T08:15:41.990Z,31.60
2024-03-04T08:20:44.856Z,34.70
2024-03-04T08:25:46.956Z,36.40
2024-03-04T08:30:48.991Z,33.20
2024-03-04T08:35:50.851Z,32.60
2024-03-04T08:40:52.770Z,34.00
2024-03-04T08:45:54.773Z,25.00
2024-03-04T08:50:56.828Z,35.50
2024-03-04T08:55:59.135Z,30.90
2024-03-04T09:01:01.741Z,29.00
2024-03-04T09:06:04.032Z,27.40
2024-03-04T09:11:06.080Z,29.30
2024-03-04T09:16:08.450Z,23.60
2024-03-04T09:21:10.503Z,27.50
2024-03-04T09:26:12.391Z,19.70
2024-03-04T09:31:14.602Z,19.10
2024-03-04T09:36:16.989Z,13.70
2024-03-04T09:41:19.982Z,14.10
2024-03-04T09:46:22.199Z,15.70
2024-03-04T09:51:25.914Z,16.50
2024-03-04T09:56:28.264Z,15.70
2024-03-04T10:01:30.602Z,16.90
2024-03-04T10:06:32.698Z,10.10
2024-03-04T10:11:34.804Z,13.30
2024-03-04T10:16:38.234Z,12.40
2024-03-04T10:21:40.122Z,8.10
2024-03-04T10:26:47.470Z,9.00
2024-03-04T10:31:53.832Z,9.60
2024-03-04T10:36:59.353Z,11.20
2024-03-04T10:42:04.319Z,9.20
2024-03-04T10:47:07.886Z,15.00
2024-03-04T10:52:14.091Z,8.40
2024-03-04T10:57:29.628Z,10.30
2024-03-04T11:03:11.199Z,6.70
2024-03-04T11:08:28.818Z,9.10
2024-03-04T11:13:34.110Z,8.70
2024-03-04T11:19:10.840Z,9.90
2024-03-04T11:24:14.290Z,6.00
2024-03-04T11:29:17.233Z,9.50
2024-03-04T11:34:19.146Z,10.90
2024-03-04T11:39:22.777Z,9.30
2024-03-04T11:44:25.296Z,8.90
2024-03-04T11:49:45.776Z,8.70
2024-03-04T11:54:50.722Z,7.50
2024-03-04T11:59:59.811Z,9.60
2024-03-04T12:05:03.614Z,7.90
2024-03-04T12:10:15.844Z,7.90
2024-03-04T12:15:19.979Z,7.40
2024-03-04T12:20:21.974Z,7.40
2024-03-04T12:25:28.348Z,9.00
2024-03-04T12:30:30.917Z,6.60
2024-03-04T12:35:33.790Z,7.30
2024-03-04T12:40:36.194Z,6.00
2024-03-04T12:45:38.730Z,6.10
2024-03-04T12:50:42.553Z,13.70
2024-03-04T12:55:44.614Z,6.50
2024-03-04T13:00:47.595Z,7.40
2024-03-04T13:05:51.293Z,5.80
2024-03-04T13:10:54.779Z,7.40
2024-03-04T13:15:56.903Z,7.80
2024-03-04T13:20:59.496Z,6.90
2024-03-04T13:26:01.557Z,7.00
2024-03-04T13:31:04.371Z,7.40
2024-03-04T13:36:06.493Z,7.70
2024-03-04T13:41:08.421Z,7.60
2024-03-04T13:46:10.636Z,8.00
2024-03-04T13:51:12.658Z,5.80
2024-03-04T13:56:14.871Z,6.50
2024-03-04T14:01:17.193Z,8.60
2024-03-04T14:06:19.273Z,5.70
2024-03-04T14:11:23.285Z,4.70
2024-03-04T14:16:25.904Z,9.20
2024-03-04T14:21:27.958Z,5.20
2024-03-04T14:26:30.053Z,4.80
2024-03-04T14:31:32.344Z,6.40
2024-03-04T14:36:34.518Z,7.40
2024-03-04T14:41:37.098Z,9.30
2024-03-04T14:46:42.550Z,7.40
2024-03-04T14:51:44.690Z,8.70
2024-03-04T14:56:47.370Z,6.10
2024-03-04T15:01:50.340Z,6.90
2024-03-04T15:06:52.298Z,5.10
2024-03-04T15:11:54.360Z,6.80
2024-03-04T15:16:57.687Z,7.40
2024-03-04T15:22:00.820Z,7.00
2024-03-04T15:27:02.724Z,8.60
2024-03-04T15:32:04.823Z,9.00
2024-03-04T15:37:06.863Z,8.40
2024-03-04T15:42:11.959Z,6.70
2024-03-04T15:47:13.853Z,6.40
2024-03-04T15:52:15.798Z,7.70
2024-03-04T15:57:17.910Z,7.10
2024-03-04T16:02:19.892Z,5.80
2024-03-04T16:07:22.035Z,7.90
2024-03-04T16:12:26.060Z,12.80
2024-03-04T16:17:28.357Z,12.90
2024-03-04T16:22:30.503Z,20.40
2024-03-04T16:27:32.468Z,16.60
2024-03-04T16:37:36.772Z,22.70
2024-03-04T16:42:41.020Z,14.10
2024-03-04T16:47:43.234Z,15.80
2024-03-04T16:52:45.333Z,45.00
2024-03-04T16:57:47.507Z,79.60
2024-03-04T17:07:51.553Z,25.80
2024-03-04T17:12:53.954Z,23.50
2024-03-04T17:17:56.103Z,23.00
2024-03-04T17:22:58.135Z,30.90
2024-03-04T17:33:03.288Z,28.80
2024-03-04T17:38:06.474Z,27.80
2024-03-04T17:43:08.451Z,34.20
2024-03-04T17:53:13.760Z,37.30
2024-03-04T17:58:17.304Z,49.90
2024-03-04T18:03:19.490Z,57.10
2024-03-04T18:13:23.300Z,79.00
2024-03-04T18:23:27.977Z,70.90
2024-03-04T18:28:32.324Z,69.30
2024-03-04T18:33:36.752Z,79.30
2024-03-04T18:38:42.907Z,91.80
2024-03-04T18:43:49.317Z,92.40
2024-03-04T18:48:51.386Z,87.10
2024-03-04T18:58:55.295Z,100.30
2024-03-04T19:03:59.928Z,103.70
2024-03-04T19:09:01.831Z,97.10
2024-03-04T19:14:03.792Z,101.70
2024-03-04T19:19:05.769Z,91.70
2024-03-04T19:29:09.317Z,92.80
2024-03-04T19:34:11.287Z,111.90
2024-03-04T19:39:14.508Z,96.20
2024-03-04T19:44:16.310Z,100.10
2024-03-04T19:49:18.809Z,94.60
2024-03-04T19:54:21.637Z,75.70
2024-03-04T19:59:23.527Z,75.10
2024-03-04T20:09:27.810Z,74.80
2024-03-04T20:14:29.705Z,87.60
2024-03-04T20:19:31.978Z,79.40
2024-03-04T20:24:34.380Z,79.10
2024-03-04T20:29:38.308Z,65.20
2024-03-04T20:34:40.384Z,70.30
2024-03-04T20:44:47.455Z,72.30
2024-03-04T20:54:51.662Z,72.80
2024-03-04T20:59:54.208Z,77.80
2024-03-04T21:04:56.192Z,62.40
2024-03-04T21:09:58.436Z,71.60
2024-03-04T21:20:02.619Z,73.10
2024-03-04T21:25:05.153Z,71.60
2024-03-04T21:30:08.818Z,63.80
2024-03-04T21:35:12.129Z,77.70
2024-03-04T21:40:15.207Z,66.10
2024-03-04T21:45:17.438Z,70.50
2024-03-04T21:50:19.428Z,76.90
2024-03-04T21:55:21.415Z,72.70
2024-03-04T22:05:25.852Z,74.20
2024-03-04T22:10:27.726Z,82.40
2024-03-04T22:15:30.092Z,78.10
2024-03-04T22:20:32.409Z,84.60
2024-03-04T22:25:34.393Z,86.10
2024-03-04T22:30:36.681Z,92.30
2024-03-04T22:35:38.853Z,86.40
2024-03-04T22:40:40.862Z,89.50
2024-03-04T22:45:44.695Z,94.80
2024-03-04T22:50:46.767Z,99.80
2024-03-04T22:55:48.703Z,122.00
2024-03-04T23:00:50.664Z,122.80
2024-03-04T23:05:53.244Z,116.80
2024-03-04T23:10:55.552Z,133.90
2024-03-04T23:15:57.654Z,132.70
2024-03-04T23:21:00.048Z,127.10
2024-03-04T23:26:04.310Z,137.20
2024-03-04T23:31:06.260Z,112.00
2024-03-04T23:36:09.289Z,121.80
2024-03-04T23:41:12.202Z,131.80
2024-03-04T23:46:14.391Z,104.70
2024-03-04T23:51:16.470Z,130.50
2024-03-04T23:56:18.443Z,120.20
